createdAt,value
2018-08-04T00:01:21.788Z,60.10
2018-08-04T00:03:50.985Z,60.80
2018-08-04T00:06:20.141Z,61.30
2018-08-04T00:08:49.187Z,61.50
2018-08-04T00:11:18.387Z,61.50
2018-08-04T00:13:47.311Z,63.00
2018-08-04T00:16:16.185Z,62.50
2018-08-04T00:18:45.406Z,62.60
2018-08-04T00:21:14.511Z,63.00
2018-08-04T00:23:43.957Z,62.70
2018-08-04T00:26:13.084Z,62.70
2018-08-04T00:28:42.207Z,62.70
2018-08-04T00:31:11.982Z,62.90
2018-08-04T00:33:41.318Z,63.30
2018-08-04T00:36:10.283Z,63.10
2018-08-04T00:38:40.100Z,63.10
2018-08-04T00:41:09.033Z,63.30
2018-08-04T00:43:38.753Z,62.90
2018-08-04T00:46:08.764Z,62.80
2018-08-04T00:48:38.052Z,61.90
2018-08-04T00:51:06.979Z,63.00
2018-08-04T00:53:36.665Z,62.20
2018-08-04T00:56:06.985Z,61.70
2018-08-04T00:58:36.503Z,62.00
2018-08-04T01:01:06.556Z,62.30
2018-08-04T01:03:36.341Z,62.50
2018-08-04T01:06:05.827Z,62.40
2018-08-04T01:08:34.958Z,62.50
2018-08-04T01:11:03.747Z,62.70
2018-08-04T01:13:32.514Z,62.20
2018-08-04T01:16:01.290Z,62.20
2018-08-04T01:18:30.766Z,62.70
2018-08-04T01:20:59.938Z,62.70
2018-08-04T01:23:29.085Z,62.30
2018-08-04T01:25:58.211Z,63.40
2018-08-04T01:28:27.374Z,63.10
2018-08-04T01:30:56.194Z,62.90
2018-08-04T01:33:25.297Z,62.90
2018-08-04T01:35:54.550Z,63.40
2018-08-04T01:38:24.099Z,63.00
2018-08-04T01:40:53.338Z,63.50
2018-08-04T01:43:22.214Z,63.60
2018-08-04T01:45:51.759Z,63.50
2018-08-04T01:48:20.659Z,63.60
2018-08-04T01:50:50.123Z,63.50
2018-08-04T01:53:19.407Z,63.80
2018-08-04T01:55:49.628Z,63.30
2018-08-04T01:58:18.717Z,63.70
2018-08-04T02:00:48.085Z,63.50
2018-08-04T02:03:17.384Z,63.60
2018-08-04T02:05:46.680Z,63.60
2018-08-04T02:08:15.618Z,63.30
2018-08-04T02:10:44.794Z,63.10
2018-08-04T02:13:14.291Z,63.50
2018-08-04T02:15:43.872Z,63.50
2018-08-04T02:18:14.240Z,63.30
2018-08-04T02:20:43.386Z,63.60
2018-08-04T02:23:13.842Z,64.00
2018-08-04T02:25:42.854Z,63.80
2018-08-04T02:28:12.032Z,63.80
2018-08-04T02:30:40.816Z,64.10
2018-08-04T02:33:09.916Z,63.70
2018-08-04T02:35:39.078Z,63.30
2018-08-04T02:38:08.286Z,63.80
2018-08-04T02:40:37.201Z,64.20
2018-08-04T02:43:06.540Z,63.80
2018-08-04T02:45:35.998Z,63.60
2018-08-04T02:48:05.137Z,63.60
2018-08-04T02:50:34.311Z,64.20
2018-08-04T02:53:03.366Z,64.00
2018-08-04T02:55:32.515Z,64.20
2018-08-04T02:58:01.684Z,63.90
2018-08-04T03:00:31.628Z,63.80
2018-08-04T03:03:00.839Z,64.30
2018-08-04T03:05:30.820Z,63.70
2018-08-04T03:08:00.132Z,63.40
2018-08-04T03:10:29.740Z,63.30
2018-08-04T03:12:58.684Z,63.20
2018-08-04T03:15:27.679Z,63.00
2018-08-04T03:17:56.564Z,62.70
2018-08-04T03:20:25.827Z,63.00
2018-08-04T03:22:54.684Z,62.30
2018-08-04T03:25:23.930Z,62.50
2018-08-04T03:27:52.718Z,62.50
2018-08-04T03:30:21.837Z,62.10
2018-08-04T03:32:51.024Z,62.00
2018-08-04T03:35:20.123Z,62.60
2018-08-04T03:37:49.245Z,61.90
2018-08-04T03:40:18.466Z,61.80
2018-08-04T03:42:47.952Z,62.50
2018-08-04T03:45:20.263Z,62.30
2018-08-04T03:47:49.028Z,62.00
2018-08-04T03:50:18.469Z,62.00
2018-08-04T03:52:47.855Z,62.00
2018-08-04T03:55:17.029Z,62.10
2018-08-04T03:57:46.538Z,61.90
2018-08-04T04:00:16.009Z,62.00
2018-08-04T04:02:44.932Z,62.20
2018-08-04T04:05:14.123Z,61.90
2018-08-04T04:07:43.461Z,62.20
2018-08-04T04:10:13.413Z,62.20
2018-08-04T04:12:42.931Z,62.10
2018-08-04T04:15:12.428Z,62.20
2018-08-04T04:17:48.448Z,62.20
2018-08-04T04:20:18.664Z,61.90
2018-08-04T04:22:49.002Z,61.60
2018-08-04T04:25:18.117Z,61.70
2018-08-04T04:27:47.425Z,61.00
2018-08-04T04:30:17.564Z,62.80
2018-08-04T04:32:46.562Z,63.20
2018-08-04T04:35:15.937Z,62.10
2018-08-04T04:37:45.361Z,60.60
2018-08-04T04:40:14.375Z,60.80
2018-08-04T04:42:45.789Z,58.70
2018-08-04T04:45:14.871Z,58.50
2018-08-04T04:47:44.174Z,57.90
2018-08-04T04:50:13.717Z,57.50
2018-08-04T04:52:43.950Z,57.40
2018-08-04T04:55:13.721Z,56.60
2018-08-04T04:57:43.874Z,56.00
2018-08-04T05:00:13.618Z,56.20
2018-08-04T05:02:42.679Z,56.30
2018-08-04T05:05:12.358Z,56.10
2018-08-04T05:07:42.155Z,55.40
2018-08-04T05:10:12.430Z,55.30
2018-08-04T05:12:41.797Z,55.50
2018-08-04T05:15:11.824Z,53.80
2018-08-04T05:17:41.524Z,52.50
2018-08-04T05:20:10.865Z,52.10
2018-08-04T05:22:40.513Z,51.70
2018-08-04T05:25:10.238Z,51.10
2018-08-04T05:27:39.578Z,51.30
2018-08-04T05:30:09.440Z,50.00
2018-08-04T05:32:38.787Z,50.50
2018-08-04T05:35:08.443Z,49.20
2018-08-04T05:37:38.457Z,47.50
2018-08-04T05:40:08.140Z,45.10
2018-08-04T05:42:37.512Z,43.50
2018-08-04T05:45:08.352Z,43.30
2018-08-04T05:47:38.374Z,41.40
2018-08-04T05:50:08.207Z,40.20
2018-08-04T05:52:37.392Z,40.70
2018-08-04T05:55:06.872Z,40.00
2018-08-04T05:57:36.610Z,40.60
2018-08-04T06:00:07.533Z,40.00
2018-08-04T06:02:37.764Z,38.80
2018-08-04T06:05:07.807Z,38.40
2018-08-04T06:07:37.915Z,38.40
2018-08-04T06:10:07.655Z,37.90
2018-08-04T06:12:37.363Z,40.60
2018-08-04T06:15:06.803Z,42.10
2018-08-04T06:17:36.476Z,45.30
2018-08-04T06:20:06.216Z,46.50
2018-08-04T06:22:36.075Z,45.60
2018-08-04T06:25:05.791Z,44.80
2018-08-04T06:27:35.811Z,46.10
2018-08-04T06:30:06.972Z,47.90
2018-08-04T06:32:36.800Z,48.30
2018-08-04T06:35:07.394Z,47.80
2018-08-04T06:37:37.228Z,48.90
2018-08-04T06:40:07.412Z,48.50
2018-08-04T06:42:37.536Z,47.80
2018-08-04T06:45:08.622Z,47.60
2018-08-04T06:47:38.732Z,48.70
2018-08-04T06:50:08.593Z,48.80
2018-08-04T06:52:38.378Z,49.10
2018-08-04T06:55:07.960Z,48.90
2018-08-04T06:57:37.440Z,49.30
2018-08-04T07:00:07.639Z,49.00
2018-08-04T07:02:37.064Z,50.20
2018-08-04T07:05:06.715Z,48.80
2018-08-04T07:07:36.185Z,47.90
2018-08-04T07:10:05.836Z,48.50
2018-08-04T07:15:05.880Z,47.30
2018-08-04T07:17:35.451Z,46.80
2018-08-04T07:20:05.137Z,46.30
2018-08-04T07:22:34.705Z,47.40
2018-08-04T07:25:04.451Z,48.80
2018-08-04T07:27:34.065Z,48.60
2018-08-04T07:30:03.796Z,47.70
2018-08-04T07:32:33.561Z,48.70
2018-08-04T07:35:02.931Z,48.00
2018-08-04T07:40:02.453Z,47.50
2018-08-04T07:42:32.424Z,46.40
2018-08-04T07:45:01.781Z,46.10
2018-08-04T07:47:31.533Z,46.50
2018-08-04T07:50:01.524Z,46.40
2018-08-04T07:52:31.704Z,47.00
2018-08-04T07:55:01.146Z,47.50
2018-08-04T07:57:30.883Z,47.30
2018-08-04T08:00:00.853Z,47.40
2018-08-04T08:02:30.519Z,46.70
2018-08-04T08:05:00.354Z,46.20
2018-08-04T08:07:30.575Z,45.40
2018-08-04T08:10:00.297Z,45.80
2018-08-04T08:12:29.661Z,45.40
2018-08-04T08:14:59.747Z,45.60
2018-08-04T08:17:29.146Z,46.20
2018-08-04T08:19:58.554Z,45.80
2018-08-04T08:22:38.198Z,45.10
2018-08-04T08:25:08.084Z,46.70
2018-08-04T08:27:38.031Z,44.20
2018-08-04T08:30:10.856Z,44.00
2018-08-04T08:32:40.420Z,45.20
2018-08-04T08:35:10.702Z,44.60
2018-08-04T08:37:40.771Z,43.50
2018-08-04T08:40:10.345Z,41.10
2018-08-04T08:42:39.478Z,36.40
2018-08-04T08:45:10.483Z,34.90
2018-08-04T08:47:39.562Z,34.50
2018-08-04T08:50:12.121Z,33.40
2018-08-04T08:52:41.830Z,32.30
2018-08-04T08:55:11.568Z,32.20
2018-08-04T08:57:40.755Z,30.60
2018-08-04T09:00:11.742Z,30.90
2018-08-04T09:02:41.721Z,30.80
2018-08-04T09:05:11.428Z,30.00
2018-08-04T09:07:40.688Z,30.40
2018-08-04T09:10:11.848Z,32.50
2018-08-04T09:12:41.908Z,35.00
2018-08-04T09:15:11.316Z,35.80
2018-08-04T09:17:40.720Z,37.30
2018-08-04T09:20:11.088Z,35.70
2018-08-04T09:22:40.653Z,33.20
2018-08-04T09:25:09.877Z,31.30
2018-08-04T09:27:39.384Z,30.70
2018-08-04T09:30:10.735Z,30.90
2018-08-04T09:32:40.260Z,29.60
2018-08-04T09:35:09.381Z,30.20
2018-08-04T09:37:38.466Z,29.70
2018-08-04T09:40:10.101Z,30.70
2018-08-04T09:42:39.244Z,30.80
2018-08-04T09:45:09.745Z,30.90
2018-08-04T09:47:39.912Z,30.80
2018-08-04T09:50:12.821Z,34.20
2018-08-04T09:52:42.850Z,36.50
2018-08-04T09:55:12.950Z,36.80
2018-08-04T09:57:42.713Z,37.70
2018-08-04T10:00:18.195Z,36.80
2018-08-04T10:02:47.676Z,39.00
2018-08-04T10:05:17.135Z,38.70
2018-08-04T10:07:47.046Z,38.90
2018-08-04T10:10:16.486Z,40.70
2018-08-04T10:12:45.894Z,43.40
2018-08-04T10:15:15.250Z,40.70
2018-08-04T10:17:44.654Z,41.00
2018-08-04T10:20:14.382Z,39.90
2018-08-04T10:22:43.907Z,40.80
2018-08-04T10:25:13.607Z,40.50
2018-08-04T10:27:43.146Z,41.30
2018-08-04T10:30:13.011Z,40.60
2018-08-04T10:32:43.096Z,39.80
2018-08-04T10:35:12.818Z,41.40
2018-08-04T10:37:42.825Z,40.20
2018-08-04T10:40:13.323Z,40.70
2018-08-04T10:42:43.556Z,41.40
2018-08-04T10:45:14.303Z,41.10
2018-08-04T10:50:13.873Z,40.70
2018-08-04T10:52:43.872Z,41.00
2018-08-04T10:55:14.234Z,41.00
2018-08-04T10:57:44.220Z,41.60
2018-08-04T11:00:14.540Z,41.60
2018-08-04T11:02:44.130Z,42.10
2018-08-04T11:05:13.720Z,41.30
2018-08-04T11:07:43.670Z,41.40
2018-08-04T11:10:13.369Z,40.80
2018-08-04T11:12:43.197Z,40.90
2018-08-04T11:15:12.990Z,41.20
2018-08-04T11:17:42.950Z,41.40
2018-08-04T11:22:42.653Z,41.10
2018-08-04T11:25:12.321Z,41.50
2018-08-04T11:27:42.039Z,41.80
2018-08-04T11:30:12.033Z,42.00
2018-08-04T11:32:41.354Z,41.70
2018-08-04T11:35:11.031Z,41.50
2018-08-04T11:37:41.087Z,41.80
2018-08-04T11:40:10.667Z,41.70
2018-08-04T11:42:40.865Z,42.20
2018-08-04T11:45:10.886Z,42.90
2018-08-04T11:47:40.664Z,42.40
2018-08-04T11:50:10.875Z,42.10
2018-08-04T11:52:40.927Z,42.20
2018-08-04T11:55:10.394Z,41.80
2018-08-04T11:57:39.764Z,42.10
2018-08-04T12:00:09.772Z,42.30
2018-08-04T12:02:39.384Z,42.70
2018-08-04T12:05:08.774Z,42.50
2018-08-04T12:10:07.952Z,42.70
2018-08-04T12:12:37.969Z,43.40
2018-08-04T12:15:07.370Z,44.40
2018-08-04T12:17:36.798Z,44.00
2018-08-04T12:20:06.952Z,43.30
2018-08-04T12:22:36.333Z,44.30
2018-08-04T12:25:06.467Z,43.50
2018-08-04T12:27:36.549Z,43.50
2018-08-04T12:30:07.268Z,44.40
2018-08-04T12:32:37.646Z,43.00
2018-08-04T12:35:08.070Z,44.00
2018-08-04T12:37:38.362Z,44.10
2018-08-04T12:40:08.244Z,43.10
2018-08-04T12:42:37.787Z,43.20
2018-08-04T12:45:07.689Z,43.10
2018-08-04T12:47:37.205Z,43.10
2018-08-04T12:50:06.725Z,44.30
2018-08-04T12:52:36.415Z,43.50
2018-08-04T12:57:35.493Z,42.80
2018-08-04T13:00:06.536Z,42.90
2018-08-04T13:02:36.173Z,42.90
2018-08-04T13:05:06.577Z,43.40
2018-08-04T13:07:36.312Z,43.10
2018-08-04T13:10:06.045Z,43.40
2018-08-04T13:12:35.932Z,44.10
2018-08-04T13:15:06.550Z,48.00
2018-08-04T13:17:36.101Z,50.60
2018-08-04T13:20:06.537Z,47.90
2018-08-04T13:22:36.469Z,48.20
2018-08-04T13:25:06.731Z,44.20
2018-08-04T13:27:36.556Z,44.50
2018-08-04T13:30:06.767Z,45.10
2018-08-04T13:32:36.650Z,43.70
2018-08-04T13:35:06.786Z,42.90
2018-08-04T13:37:36.301Z,45.50
2018-08-04T13:40:06.340Z,44.70
2018-08-04T13:42:35.816Z,43.90
2018-08-04T13:45:06.638Z,46.40
2018-08-04T13:47:36.112Z,46.20
2018-08-04T13:50:06.724Z,45.30
2018-08-04T13:52:37.439Z,44.30
2018-08-04T13:55:06.882Z,45.20
2018-08-04T13:57:36.789Z,45.00
2018-08-04T14:00:06.598Z,44.50
2018-08-04T14:02:36.524Z,45.80
2018-08-04T14:05:06.740Z,47.00
2018-08-04T14:07:38.013Z,45.70
2018-08-04T14:10:07.698Z,46.20
2018-08-04T14:12:37.391Z,45.20
2018-08-04T14:15:07.153Z,46.00
2018-08-04T14:17:36.857Z,45.80
2018-08-04T14:20:06.265Z,46.00
2018-08-04T14:22:35.999Z,47.00
2018-08-04T14:25:05.333Z,46.70
2018-08-04T14:27:35.403Z,46.40
2018-08-04T14:30:07.397Z,46.20
2018-08-04T14:32:36.819Z,45.80
2018-08-04T14:35:06.586Z,46.70
2018-08-04T14:37:36.413Z,46.30
2018-08-04T14:40:05.745Z,47.20
2018-08-04T14:42:35.437Z,48.90
2018-08-04T14:45:05.235Z,48.10
2018-08-04T14:47:34.557Z,47.90
2018-08-04T14:50:04.371Z,48.30
2018-08-04T14:52:34.501Z,48.50
2018-08-04T14:55:03.836Z,46.70
2018-08-04T14:57:33.387Z,47.60
2018-08-04T15:00:03.069Z,48.50
2018-08-04T15:02:32.613Z,47.80
2018-08-04T15:05:02.538Z,47.80
2018-08-04T15:07:32.765Z,47.40
2018-08-04T15:10:02.451Z,47.90
2018-08-04T15:12:31.843Z,48.00
2018-08-04T15:15:02.527Z,48.50
2018-08-04T15:17:31.928Z,48.60
2018-08-04T15:20:01.987Z,48.70
2018-08-04T15:22:33.265Z,48.50
2018-08-04T15:25:03.314Z,48.60
2018-08-04T15:27:33.361Z,48.10
2018-08-04T15:30:02.929Z,48.20
2018-08-04T15:32:32.352Z,48.70
2018-08-04T15:35:01.881Z,48.80
2018-08-04T15:37:31.426Z,48.40
2018-08-04T15:40:00.844Z,48.40
2018-08-04T15:42:30.281Z,48.20
2018-08-04T15:45:00.062Z,48.30
2018-08-04T15:47:30.221Z,48.40
2018-08-04T15:49:59.750Z,49.00
2018-08-04T15:52:29.207Z,48.60
2018-08-04T15:54:58.802Z,48.60
2018-08-04T15:57:28.432Z,48.70
2018-08-04T15:59:57.987Z,48.80
2018-08-04T16:02:27.764Z,49.20
2018-08-04T16:04:57.527Z,50.40
2018-08-04T16:07:27.219Z,50.00
2018-08-04T16:09:57.171Z,51.10
2018-08-04T16:12:26.503Z,50.60
2018-08-04T16:14:55.861Z,50.60
2018-08-04T16:17:25.601Z,50.50
2018-08-04T16:19:55.289Z,50.20
2018-08-04T16:22:25.331Z,50.80
2018-08-04T16:24:54.751Z,51.50
2018-08-04T16:27:24.659Z,51.40
2018-08-04T16:29:54.329Z,51.70
2018-08-04T16:32:23.672Z,51.80
2018-08-04T16:34:53.746Z,52.20
2018-08-04T16:37:23.775Z,52.00
2018-08-04T16:39:53.822Z,52.60
2018-08-04T16:42:23.150Z,52.80
2018-08-04T16:44:52.467Z,52.90
2018-08-04T16:47:22.052Z,52.70
2018-08-04T16:49:51.705Z,52.50
2018-08-04T16:52:21.460Z,52.40
2018-08-04T16:54:51.118Z,52.90
2018-08-04T16:57:20.529Z,53.30
2018-08-04T16:59:50.577Z,53.50
2018-08-04T17:02:20.295Z,54.30
2018-08-04T17:04:50.067Z,54.40
2018-08-04T17:07:20.208Z,53.50
2018-08-04T17:09:49.780Z,53.00
2018-08-04T17:12:19.779Z,52.70
2018-08-04T17:14:49.733Z,52.50
2018-08-04T17:17:19.667Z,53.10
2018-08-04T17:19:49.996Z,54.60
2018-08-04T17:22:19.466Z,54.90
2018-08-04T17:24:48.969Z,55.10
2018-08-04T17:27:18.562Z,55.50
2018-08-04T17:29:48.323Z,55.50
2018-08-04T17:32:18.123Z,55.90
2018-08-04T17:34:48.454Z,56.30
2018-08-04T17:37:17.992Z,55.80
2018-08-04T17:39:47.619Z,55.80
2018-08-04T17:42:17.522Z,56.00
2018-08-04T17:44:47.703Z,55.90
2018-08-04T17:47:17.880Z,55.80
2018-08-04T17:49:47.411Z,56.10
2018-08-04T17:52:16.964Z,55.90
2018-08-04T17:54:46.466Z,56.70
2018-08-04T17:57:16.342Z,56.30
2018-08-04T17:59:46.597Z,56.40
2018-08-04T18:02:16.439Z,56.40
2018-08-04T18:04:46.149Z,56.00
2018-08-04T18:07:16.400Z,56.20
2018-08-04T18:09:46.085Z,57.00
2018-08-04T18:12:15.903Z,57.60
2018-08-04T18:14:45.318Z,57.80
2018-08-04T18:17:15.347Z,57.90
2018-08-04T18:19:45.019Z,58.20
2018-08-04T18:22:14.376Z,58.50
2018-08-04T18:24:44.192Z,58.40
2018-08-04T18:27:13.846Z,59.10
2018-08-04T18:29:43.301Z,58.80
2018-08-04T18:32:12.805Z,58.70
2018-08-04T18:34:42.465Z,59.10
2018-08-04T18:37:11.861Z,59.20
2018-08-04T18:39:41.616Z,59.30
2018-08-04T18:44:41.068Z,59.30
2018-08-04T18:47:10.710Z,59.80
2018-08-04T18:49:40.404Z,59.90
2018-08-04T18:52:10.524Z,60.00
2018-08-04T18:54:39.906Z,59.70
2018-08-04T18:57:09.282Z,60.00
2018-08-04T18:59:38.711Z,60.40
2018-08-04T19:02:08.477Z,60.00
2018-08-04T19:04:37.929Z,60.30
2018-08-04T19:07:08.933Z,60.80
2018-08-04T19:09:38.663Z,60.90
2018-08-04T19:12:08.159Z,60.60
2018-08-04T19:14:37.920Z,60.50
2018-08-04T19:17:07.751Z,61.00
2018-08-04T19:19:37.751Z,62.10
2018-08-04T19:22:07.641Z,63.50
2018-08-04T19:24:37.439Z,63.90
2018-08-04T19:27:06.882Z,64.60
2018-08-04T19:29:36.393Z,65.20
2018-08-04T19:32:06.463Z,65.90
2018-08-04T19:34:36.165Z,66.00
2018-08-04T19:37:06.252Z,66.80
2018-08-04T19:39:35.955Z,68.00
2018-08-04T19:42:06.128Z,68.40
2018-08-04T19:44:36.102Z,69.30
2018-08-04T19:47:06.055Z,69.10
2018-08-04T19:49:36.422Z,69.90
2018-08-04T19:52:06.583Z,70.20
2018-08-04T19:54:37.184Z,69.50
2018-08-04T19:59:36.713Z,70.00
2018-08-04T20:02:06.682Z,70.20
2018-08-04T20:04:36.459Z,69.70
2018-08-04T20:07:06.858Z,70.30
2018-08-04T20:09:37.312Z,70.00
2018-08-04T20:12:07.636Z,69.10
2018-08-04T20:14:37.339Z,69.90
2018-08-04T20:17:06.773Z,69.70
2018-08-04T20:19:36.285Z,70.10
2018-08-04T20:22:11.318Z,70.30
2018-08-04T20:24:41.738Z,70.60
2018-08-04T20:27:11.549Z,71.40
2018-08-04T20:29:41.443Z,71.70
2018-08-04T20:34:40.607Z,71.00
2018-08-04T20:37:10.367Z,71.90
2018-08-04T20:39:39.142Z,72.10
2018-08-04T20:42:08.823Z,72.50
2018-08-04T20:44:38.202Z,72.30
2018-08-04T20:47:08.549Z,73.70
2018-08-04T20:49:37.974Z,74.30
2018-08-04T20:52:06.832Z,75.40
2018-08-04T20:54:36.540Z,72.70
2018-08-04T20:57:05.940Z,72.50
2018-08-04T20:59:35.639Z,74.00
2018-08-04T21:02:05.787Z,73.40
2018-08-04T21:04:36.296Z,73.60
2018-08-04T21:07:06.660Z,74.00
2018-08-04T21:09:36.371Z,74.50
2018-08-04T21:12:06.100Z,74.00
2018-08-04T21:14:35.815Z,75.00
2018-08-04T21:17:05.954Z,74.50
2018-08-04T21:19:35.601Z,74.90
2018-08-04T21:22:05.655Z,73.90
2018-08-04T21:24:35.348Z,74.00
2018-08-04T21:27:05.082Z,73.60
2018-08-04T21:32:03.394Z,74.00
2018-08-04T21:34:32.872Z,74.20
2018-08-04T21:37:02.776Z,74.50
2018-08-04T21:39:32.343Z,74.30
2018-08-04T21:42:02.159Z,75.30
2018-08-04T21:44:31.840Z,76.50
2018-08-04T21:47:01.476Z,75.00
2018-08-04T21:49:31.175Z,74.90
2018-08-04T21:52:00.861Z,74.80
2018-08-04T21:54:30.765Z,74.30
2018-08-04T21:57:01.372Z,74.40
2018-08-04T21:59:30.395Z,74.10
2018-08-04T22:02:00.321Z,75.10
2018-08-04T22:04:30.289Z,74.10
2018-08-04T22:07:35.431Z,74.70
2018-08-04T22:10:05.271Z,74.60
2018-08-04T22:12:35.715Z,74.80
2018-08-04T22:15:06.507Z,74.50
2018-08-04T22:17:36.772Z,74.80
2018-08-04T22:20:07.881Z,74.30
2018-08-04T22:22:38.206Z,74.50
2018-08-04T22:25:09.228Z,74.50
2018-08-04T22:27:38.878Z,74.30
2018-08-04T22:30:10.327Z,74.70
2018-08-04T22:32:40.104Z,74.30
2018-08-04T22:35:09.855Z,74.60
2018-08-04T22:37:40.329Z,75.30
2018-08-04T22:40:11.269Z,75.50
2018-08-04T22:42:40.487Z,75.20
2018-08-04T22:45:53.782Z,74.70
2018-08-04T22:48:23.084Z,75.00
2018-08-04T22:50:52.346Z,74.70
2018-08-04T22:53:21.161Z,74.50
2018-08-04T22:55:50.268Z,75.70
2018-08-04T22:58:19.124Z,74.70
2018-08-04T23:00:48.522Z,74.80
2018-08-04T23:03:18.090Z,74.60
2018-08-04T23:05:47.025Z,74.70
2018-08-04T23:08:16.578Z,74.90
2018-08-04T23:10:45.696Z,75.70
2018-08-04T23:13:16.020Z,75.20
2018-08-04T23:15:45.069Z,75.60
2018-08-04T23:18:14.469Z,75.60
2018-08-04T23:20:43.761Z,75.50
2018-08-04T23:23:13.623Z,75.50
2018-08-04T23:25:42.708Z,75.70
2018-08-04T23:28:11.685Z,76.00
2018-08-04T23:30:40.594Z,75.80
2018-08-04T23:33:09.777Z,75.60
2018-08-04T23:35:39.139Z,75.80
2018-08-04T23:38:07.995Z,75.50
2018-08-04T23:40:37.456Z,75.60
2018-08-04T23:43:06.600Z,75.70
2018-08-04T23:45:35.793Z,76.20
2018-08-04T23:48:04.931Z,77.00
2018-08-04T23:50:33.839Z,76.80
2018-08-04T23:53:02.636Z,77.50
2018-08-04T23:55:31.931Z,78.20
2018-08-04T23:58:01.049Z,78.90
